sensor_id;sensor_type;location;lat;lon;timestamp;P1;durP1;ratioP1;P2;durP2;ratioP2
3643;SDS011;1838;50.742;7.158;2024-02-14T00:00:28;10.47;;;2.50;;
3643;SDS011;1838;50.742;7.158;2024-02-14T00:02:53;3.07;;;2.10;;
3643;SDS011;1838;50.742;7.158;2024-02-14T00:05:19;2.93;;;2.10;;
3643;SDS011;1838;50.742;7.158;2024-02-14T00:07:44;3.30;;;2.13;;
3643;SDS011;1838;50.742;7.158;2024-02-14T00:10:10;4.73;;;2.13;;
3643;SDS011;1838;50.742;7.158;2024-02-14T00:12:36;4.37;;;2.00;;
3643;SDS011;1838;50.742;7.158;2024-02-14T00:15:03;5.10;;;1.97;;
3643;SDS011;1838;50.742;7.158;2024-02-14T00:17:31;2.20;;;1.50;;
3643;SDS011;1838;50.742;7.158;2024-02-14T00:19:56;2.50;;;1.70;;
3643;SDS011;1838;50.742;7.158;2024-02-14T00:22:23;6.17;;;1.80;;
3643;SDS011;1838;50.742;7.158;2024-02-14T00:24:49;9.70;;;1.70;;
3643;SDS011;1838;50.742;7.158;2024-02-14T00:27:14;3.50;;;1.77;;
3643;SDS011;1838;50.742;7.158;2024-02-14T00:29:40;4.80;;;1.90;;
3643;SDS011;1838;50.742;7.158;2024-02-14T00:32:08;5.90;;;2.17;;
3643;SDS011;1838;50.742;7.158;2024-02-14T00:34:34;3.00;;;1.60;;
3643;SDS011;1838;50.742;7.158;2024-02-14T00:36:59;7.10;;;2.10;;
3643;SDS011;1838;50.742;7.158;2024-02-14T00:39:25;3.43;;;1.63;;
3643;SDS011;1838;50.742;7.158;2024-02-14T00:41:50;2.57;;;1.43;;
3643;SDS011;1838;50.742;7.158;2024-02-14T00:44:17;3.77;;;1.73;;
3643;SDS011;1838;50.742;7.158;2024-02-14T00:46:44;3.27;;;1.80;;
3643;SDS011;1838;50.742;7.158;2024-02-14T00:49:10;3.40;;;1.30;;
3643;SDS011;1838;50.742;7.158;2024-02-14T00:51:36;5.87;;;1.70;;
3643;SDS011;1838;50.742;7.158;2024-02-14T00:54:05;2.10;;;1.30;;
3643;SDS011;1838;50.742;7.158;2024-02-14T00:56:31;6.07;;;1.77;;
3643;SDS011;1838;50.742;7.158;2024-02-14T00:58:56;5.10;;;1.53;;
3643;SDS011;1838;50.742;7.158;2024-02-14T01:01:22;5.57;;;1.10;;
3643;SDS011;1838;50.742;7.158;2024-02-14T01:03:48;3.37;;;1.83;;
3643;SDS011;1838;50.742;7.158;2024-02-14T01:06:14;3.87;;;1.33;;
3643;SDS011;1838;50.742;7.158;2024-02-14T01:08:40;2.17;;;1.57;;
3643;SDS011;1838;50.742;7.158;2024-02-14T01:11:06;4.03;;;1.67;;
3643;SDS011;1838;50.742;7.158;2024-02-14T01:13:32;3.87;;;1.50;;
3643;SDS011;1838;50.742;7.158;2024-02-14T01:15:58;3.37;;;1.23;;
3643;SDS011;1838;50.742;7.158;2024-02-14T01:18:23;2.20;;;1.27;;
3643;SDS011;1838;50.742;7.158;2024-02-14T01:20:49;2.63;;;1.33;;
3643;SDS011;1838;50.742;7.158;2024-02-14T01:23:15;4.70;;;1.73;;
3643;SDS011;1838;50.742;7.158;2024-02-14T01:25:41;2.03;;;1.43;;
3643;SDS011;1838;50.742;7.158;2024-02-14T01:28:07;3.10;;;2.17;;
3643;SDS011;1838;50.742;7.158;2024-02-14T01:30:33;2.47;;;1.10;;
3643;SDS011;1838;50.742;7.158;2024-02-14T01:33:01;3.97;;;1.80;;
3643;SDS011;1838;50.742;7.158;2024-02-14T01:35:28;7.00;;;1.80;;
3643;SDS011;1838;50.742;7.158;2024-02-14T01:37:55;3.10;;;1.73;;
3643;SDS011;1838;50.742;7.158;2024-02-14T01:40:20;2.63;;;1.93;;
3643;SDS011;1838;50.742;7.158;2024-02-14T01:42:46;4.10;;;2.03;;
3643;SDS011;1838;50.742;7.158;2024-02-14T01:45:12;5.53;;;2.20;;
3643;SDS011;1838;50.742;7.158;2024-02-14T01:47:38;8.03;;;1.80;;
3643;SDS011;1838;50.742;7.158;2024-02-14T01:50:06;7.53;;;1.60;;
3643;SDS011;1838;50.742;7.158;2024-02-14T01:52:37;1.83;;;1.30;;
3643;SDS011;1838;50.742;7.158;2024-02-14T01:55:05;4.20;;;1.70;;
3643;SDS011;1838;50.742;7.158;2024-02-14T01:57:32;3.90;;;1.40;;
3643;SDS011;1838;50.742;7.158;2024-02-14T01:59:59;4.43;;;1.93;;
3643;SDS011;1838;50.742;7.158;2024-02-14T02:02:29;3.10;;;1.77;;
3643;SDS011;1838;50.742;7.158;2024-02-14T02:04:55;3.30;;;1.60;;
3643;SDS011;1838;50.742;7.158;2024-02-14T02:07:20;4.13;;;1.90;;
3643;SDS011;1838;50.742;7.158;2024-02-14T02:09:46;7.47;;;2.77;;
3643;SDS011;1838;50.742;7.158;2024-02-14T02:12:11;3.00;;;1.70;;
3643;SDS011;1838;50.742;7.158;2024-02-14T02:14:37;2.43;;;1.50;;
3643;SDS011;1838;50.742;7.158;2024-02-14T02:17:02;3.57;;;1.47;;
3643;SDS011;1838;50.742;7.158;2024-02-14T02:19:32;4.67;;;1.90;;
3643;SDS011;1838;50.742;7.158;2024-02-14T02:21:58;2.20;;;1.70;;
3643;SDS011;1838;50.742;7.158;2024-02-14T02:24:24;3.77;;;1.30;;
3643;SDS011;1838;50.742;7.158;2024-02-14T02:26:50;3.67;;;1.73;;
3643;SDS011;1838;50.742;7.158;2024-02-14T02:29:15;1.70;;;0.97;;
3643;SDS011;1838;50.742;7.158;2024-02-14T02:31:41;2.87;;;1.07;;
3643;SDS011;1838;50.742;7.158;2024-02-14T02:34:07;2.23;;;1.00;;
3643;SDS011;1838;50.742;7.158;2024-02-14T02:36:35;2.10;;;1.30;;
3643;SDS011;1838;50.742;7.158;2024-02-14T02:39:02;2.73;;;1.33;;
3643;SDS011;1838;50.742;7.158;2024-02-14T02:41:29;3.13;;;1.20;;
3643;SDS011;1838;50.742;7.158;2024-02-14T02:43:57;2.30;;;1.10;;
3643;SDS011;1838;50.742;7.158;2024-02-14T02:46:23;2.80;;;1.37;;
3643;SDS011;1838;50.742;7.158;2024-02-14T02:48:50;7.73;;;1.93;;
3643;SDS011;1838;50.742;7.158;2024-02-14T02:51:19;1.83;;;1.20;;
3643;SDS011;1838;50.742;7.158;2024-02-14T02:53:44;2.90;;;1.30;;
3643;SDS011;1838;50.742;7.158;2024-02-14T02:56:10;3.23;;;1.20;;
3643;SDS011;1838;50.742;7.158;2024-02-14T02:58:37;1.70;;;1.10;;
3643;SDS011;1838;50.742;7.158;2024-02-14T03:01:07;2.00;;;1.33;;
3643;SDS011;1838;50.742;7.158;2024-02-14T03:03:33;2.80;;;1.10;;
3643;SDS011;1838;50.742;7.158;2024-02-14T03:05:58;2.00;;;1.20;;
3643;SDS011;1838;50.742;7.158;2024-02-14T03:08:24;2.50;;;1.20;;
3643;SDS011;1838;50.742;7.158;2024-02-14T03:10:50;2.10;;;1.33;;
3643;SDS011;1838;50.742;7.158;2024-02-14T03:13:16;2.97;;;1.63;;
3643;SDS011;1838;50.742;7.158;2024-02-14T03:15:42;4.87;;;1.20;;
3643;SDS011;1838;50.742;7.158;2024-02-14T03:18:09;2.17;;;1.10;;
3643;SDS011;1838;50.742;7.158;2024-02-14T03:20:35;6.13;;;1.43;;
3643;SDS011;1838;50.742;7.158;2024-02-14T03:23:01;1.90;;;1.13;;
3643;SDS011;1838;50.742;7.158;2024-02-14T03:25:28;3.27;;;1.20;;
3643;SDS011;1838;50.742;7.158;2024-02-14T03:27:54;3.90;;;1.40;;
3643;SDS011;1838;50.742;7.158;2024-02-14T03:30:22;3.53;;;1.23;;
3643;SDS011;1838;50.742;7.158;2024-02-14T03:32:48;3.60;;;1.10;;
3643;SDS011;1838;50.742;7.158;2024-02-14T03:35:14;3.00;;;1.43;;
3643;SDS011;1838;50.742;7.158;2024-02-14T03:37:43;4.60;;;1.27;;
3643;SDS011;1838;50.742;7.158;2024-02-14T03:40:12;2.40;;;1.30;;
3643;SDS011;1838;50.742;7.158;2024-02-14T03:42:38;4.77;;;1.20;;
3643;SDS011;1838;50.742;7.158;2024-02-14T03:45:05;1.80;;;0.90;;
3643;SDS011;1838;50.742;7.158;2024-02-14T03:47:32;2.13;;;1.23;;
3643;SDS011;1838;50.742;7.158;2024-02-14T03:49:58;2.90;;;0.90;;
3643;SDS011;1838;50.742;7.158;2024-02-14T03:52:24;3.17;;;1.33;;
3643;SDS011;1838;50.742;7.158;2024-02-14T03:54:49;1.77;;;0.90;;
3643;SDS011;1838;50.742;7.158;2024-02-14T03:57:15;2.53;;;1.13;;
3643;SDS011;1838;50.742;7.158;2024-02-14T03:59:43;3.40;;;1.23;;
3643;SDS011;1838;50.742;7.158;2024-02-14T04:02:11;5.10;;;1.00;;
3643;SDS011;1838;50.742;7.158;2024-02-14T04:04:38;1.70;;;1.10;;
3643;SDS011;1838;50.742;7.158;2024-02-14T04:07:07;4.57;;;1.10;;
3643;SDS011;1838;50.742;7.158;2024-02-14T04:09:36;2.17;;;1.30;;
3643;SDS011;1838;50.742;7.158;2024-02-14T04:12:01;3.40;;;1.10;;
3643;SDS011;1838;50.742;7.158;2024-02-14T04:14:27;2.50;;;1.27;;
3643;SDS011;1838;50.742;7.158;2024-02-14T04:16:52;1.80;;;1.10;;
3643;SDS011;1838;50.742;7.158;2024-02-14T04:19:18;4.00;;;1.40;;
3643;SDS011;1838;50.742;7.158;2024-02-14T04:21:44;3.83;;;1.00;;
3643;SDS011;1838;50.742;7.158;2024-02-14T04:24:09;1.90;;;1.03;;
3643;SDS011;1838;50.742;7.158;2024-02-14T04:26:35;1.80;;;1.00;;
3643;SDS011;1838;50.742;7.158;2024-02-14T04:29:00;2.70;;;1.30;;
3643;SDS011;1838;50.742;7.158;2024-02-14T04:31:26;1.93;;;1.17;;
3643;SDS011;1838;50.742;7.158;2024-02-14T04:33:54;1.83;;;1.00;;
3643;SDS011;1838;50.742;7.158;2024-02-14T04:36:20;1.50;;;0.90;;
3643;SDS011;1838;50.742;7.158;2024-02-14T04:38:47;2.37;;;1.30;;
3643;SDS011;1838;50.742;7.158;2024-02-14T04:41:14;6.10;;;1.07;;
3643;SDS011;1838;50.742;7.158;2024-02-14T04:43:39;3.07;;;1.40;;
3643;SDS011;1838;50.742;7.158;2024-02-14T04:46:05;2.20;;;1.30;;
3643;SDS011;1838;50.742;7.158;2024-02-14T04:48:35;4.23;;;1.60;;
3643;SDS011;1838;50.742;7.158;2024-02-14T04:51:02;2.70;;;1.53;;
3643;SDS011;1838;50.742;7.158;2024-02-14T04:53:29;2.10;;;1.30;;
3643;SDS011;1838;50.742;7.158;2024-02-14T04:55:55;1.90;;;1.30;;
3643;SDS011;1838;50.742;7.158;2024-02-14T04:58:21;2.90;;;1.20;;
3643;SDS011;1838;50.742;7.158;2024-02-14T05:00:46;3.27;;;1.30;;
3643;SDS011;1838;50.742;7.158;2024-02-14T05:03:12;2.83;;;1.20;;
3643;SDS011;1838;50.742;7.158;2024-02-14T05:05:37;1.90;;;1.30;;
3643;SDS011;1838;50.742;7.158;2024-02-14T05:08:03;3.40;;;1.60;;
3643;SDS011;1838;50.742;7.158;2024-02-14T05:10:29;3.07;;;2.33;;
3643;SDS011;1838;50.742;7.158;2024-02-14T05:12:55;3.63;;;1.03;;
3643;SDS011;1838;50.742;7.158;2024-02-14T05:15:21;2.10;;;1.40;;
3643;SDS011;1838;50.742;7.158;2024-02-14T05:17:47;3.07;;;1.40;;
3643;SDS011;1838;50.742;7.158;2024-02-14T05:20:13;2.80;;;1.60;;
3643;SDS011;1838;50.742;7.158;2024-02-14T05:22:38;2.80;;;1.33;;
3643;SDS011;1838;50.742;7.158;2024-02-14T05:25:04;5.00;;;1.87;;
3643;SDS011;1838;50.742;7.158;2024-02-14T05:27:32;2.10;;;1.40;;
3643;SDS011;1838;50.742;7.158;2024-02-14T05:29:58;5.20;;;1.20;;
3643;SDS011;1838;50.742;7.158;2024-02-14T05:32:23;4.73;;;2.37;;
3643;SDS011;1838;50.742;7.158;2024-02-14T05:34:50;2.13;;;1.30;;
3643;SDS011;1838;50.742;7.158;2024-02-14T05:37:16;3.00;;;1.60;;
3643;SDS011;1838;50.742;7.158;2024-02-14T05:39:41;3.37;;;2.50;;
3643;SDS011;1838;50.742;7.158;2024-02-14T05:42:07;3.70;;;1.90;;
3643;SDS011;1838;50.742;7.158;2024-02-14T05:44:33;3.07;;;2.10;;
3643;SDS011;1838;50.742;7.158;2024-02-14T05:46:59;7.23;;;2.83;;
3643;SDS011;1838;50.742;7.158;2024-02-14T05:49:25;2.30;;;1.87;;
3643;SDS011;1838;50.742;7.158;2024-02-14T05:51:50;2.33;;;1.73;;
3643;SDS011;1838;50.742;7.158;2024-02-14T05:54:18;2.63;;;1.97;;
3643;SDS011;1838;50.742;7.158;2024-02-14T05:56:45;2.10;;;1.90;;
3643;SDS011;1838;50.742;7.158;2024-02-14T05:59:11;3.40;;;1.93;;
3643;SDS011;1838;50.742;7.158;2024-02-14T06:01:36;2.33;;;1.77;;
3643;SDS011;1838;50.742;7.158;2024-02-14T06:04:02;2.30;;;1.30;;
3643;SDS011;1838;50.742;7.158;2024-02-14T06:06:28;2.20;;;1.70;;
3643;SDS011;1838;50.742;7.158;2024-02-14T06:08:53;3.00;;;1.10;;
3643;SDS011;1838;50.742;7.158;2024-02-14T06:11:19;3.50;;;1.90;;
3643;SDS011;1838;50.742;7.158;2024-02-14T06:13:46;2.20;;;1.50;;
3643;SDS011;1838;50.742;7.158;2024-02-14T06:16:12;2.47;;;1.60;;
3643;SDS011;1838;50.742;7.158;2024-02-14T06:18:38;1.87;;;1.33;;
3643;SDS011;1838;50.742;7.158;2024-02-14T06:21:07;1.87;;;1.40;;
3643;SDS011;1838;50.742;7.158;2024-02-14T06:23:32;4.20;;;2.23;;
3643;SDS011;1838;50.742;7.158;2024-02-14T06:25:58;2.13;;;1.50;;
3643;SDS011;1838;50.742;7.158;2024-02-14T06:28:24;2.80;;;1.60;;
3643;SDS011;1838;50.742;7.158;2024-02-14T06:30:49;2.50;;;1.40;;
3643;SDS011;1838;50.742;7.158;2024-02-14T06:33:15;2.03;;;1.40;;
3643;SDS011;1838;50.742;7.158;2024-02-14T06:35:41;3.80;;;1.33;;
3643;SDS011;1838;50.742;7.158;2024-02-14T06:38:06;2.20;;;1.50;;
3643;SDS011;1838;50.742;7.158;2024-02-14T06:40:32;1.90;;;1.37;;
3643;SDS011;1838;50.742;7.158;2024-02-14T06:42:58;2.77;;;1.87;;
3643;SDS011;1838;50.742;7.158;2024-02-14T06:45:25;2.83;;;1.73;;
3643;SDS011;1838;50.742;7.158;2024-02-14T06:47:51;2.03;;;1.47;;
3643;SDS011;1838;50.742;7.158;2024-02-14T06:50:16;2.10;;;1.50;;
3643;SDS011;1838;50.742;7.158;2024-02-14T06:52:42;2.53;;;1.53;;
3643;SDS011;1838;50.742;7.158;2024-02-14T06:55:08;3.53;;;1.57;;
3643;SDS011;1838;50.742;7.158;2024-02-14T06:57:33;3.40;;;1.50;;
3643;SDS011;1838;50.742;7.158;2024-02-14T06:59:59;2.40;;;1.53;;
3643;SDS011;1838;50.742;7.158;2024-02-14T07:02:24;2.90;;;1.73;;
3643;SDS011;1838;50.742;7.158;2024-02-14T07:04:53;3.53;;;1.37;;
3643;SDS011;1838;50.742;7.158;2024-02-14T07:07:19;11.27;;;1.80;;
3643;SDS011;1838;50.742;7.158;2024-02-14T07:09:44;3.30;;;1.53;;
3643;SDS011;1838;50.742;7.158;2024-02-14T07:12:10;2.30;;;1.20;;
3643;SDS011;1838;50.742;7.158;2024-02-14T07:14:36;3.13;;;2.10;;
3643;SDS011;1838;50.742;7.158;2024-02-14T07:17:01;5.63;;;1.47;;
3643;SDS011;1838;50.742;7.158;2024-02-14T07:19:27;4.33;;;1.73;;
3643;SDS011;1838;50.742;7.158;2024-02-14T07:21:53;3.90;;;1.50;;
3643;SDS011;1838;50.742;7.158;2024-02-14T07:24:18;3.33;;;1.50;;
3643;SDS011;1838;50.742;7.158;2024-02-14T07:26:44;3.67;;;2.40;;
3643;SDS011;1838;50.742;7.158;2024-02-14T07:29:09;2.20;;;1.43;;
3643;SDS011;1838;50.742;7.158;2024-02-14T07:31:35;4.27;;;1.30;;
3643;SDS011;1838;50.742;7.158;2024-02-14T07:34:00;3.07;;;1.40;;
3643;SDS011;1838;50.742;7.158;2024-02-14T07:36:28;2.33;;;1.40;;
3643;SDS011;1838;50.742;7.158;2024-02-14T07:38:56;4.30;;;1.90;;
3643;SDS011;1838;50.742;7.158;2024-02-14T07:41:22;2.00;;;1.00;;
3643;SDS011;1838;50.742;7.158;2024-02-14T07:43:47;2.27;;;1.53;;
3643;SDS011;1838;50.742;7.158;2024-02-14T07:46:17;2.23;;;1.40;;
3643;SDS011;1838;50.742;7.158;2024-02-14T07:48:47;3.43;;;1.20;;
3643;SDS011;1838;50.742;7.158;2024-02-14T07:51:13;4.47;;;1.10;;
3643;SDS011;1838;50.742;7.158;2024-02-14T07:53:39;1.90;;;1.20;;
3643;SDS011;1838;50.742;7.158;2024-02-14T07:56:05;3.20;;;1.17;;
3643;SDS011;1838;50.742;7.158;2024-02-14T07:58:30;3.23;;;1.17;;
3643;SDS011;1838;50.742;7.158;2024-02-14T08:00:56;2.90;;;1.37;;
3643;SDS011;1838;50.742;7.158;2024-02-14T08:03:21;2.90;;;1.93;;
3643;SDS011;1838;50.742;7.158;2024-02-14T08:05:47;1.73;;;0.90;;
3643;SDS011;1838;50.742;7.158;2024-02-14T08:08:13;2.47;;;0.93;;
3643;SDS011;1838;50.742;7.158;2024-02-14T08:10:38;1.80;;;1.00;;
3643;SDS011;1838;50.742;7.158;2024-02-14T08:13:04;2.57;;;1.00;;
3643;SDS011;1838;50.742;7.158;2024-02-14T08:15:29;2.23;;;1.07;;
3643;SDS011;1838;50.742;7.158;2024-02-14T08:17:55;2.53;;;1.70;;
3643;SDS011;1838;50.742;7.158;2024-02-14T08:20:21;2.00;;;1.10;;
3643;SDS011;1838;50.742;7.158;2024-02-14T08:22:48;3.13;;;1.07;;
3643;SDS011;1838;50.742;7.158;2024-02-14T08:25:14;2.20;;;1.40;;
3643;SDS011;1838;50.742;7.158;2024-02-14T08:27:39;2.03;;;1.17;;
3643;SDS011;1838;50.742;7.158;2024-02-14T08:30:05;10.60;;;1.37;;
3643;SDS011;1838;50.742;7.158;2024-02-14T08:32:31;3.17;;;1.70;;
3643;SDS011;1838;50.742;7.158;2024-02-14T08:34:58;1.70;;;1.10;;
3643;SDS011;1838;50.742;7.158;2024-02-14T08:37:23;1.87;;;1.00;;
3643;SDS011;1838;50.742;7.158;2024-02-14T08:39:49;2.10;;;1.23;;
3643;SDS011;1838;50.742;7.158;2024-02-14T08:42:15;2.77;;;1.47;;
3643;SDS011;1838;50.742;7.158;2024-02-14T08:44:41;2.00;;;1.10;;
3643;SDS011;1838;50.742;7.158;2024-02-14T08:47:06;3.27;;;1.57;;
3643;SDS011;1838;50.742;7.158;2024-02-14T08:49:32;2.83;;;1.27;;
3643;SDS011;1838;50.742;7.158;2024-02-14T08:51:58;6.23;;;1.57;;
3643;SDS011;1838;50.742;7.158;2024-02-14T08:54:24;3.30;;;1.10;;
3643;SDS011;1838;50.742;7.158;2024-02-14T08:56:49;3.40;;;1.63;;
3643;SDS011;1838;50.742;7.158;2024-02-14T08:59:17;4.23;;;1.47;;
3643;SDS011;1838;50.742;7.158;2024-02-14T09:01:43;3.17;;;1.77;;
3643;SDS011;1838;50.742;7.158;2024-02-14T09:04:09;4.70;;;1.50;;
3643;SDS011;1838;50.742;7.158;2024-02-14T09:06:34;1.80;;;0.93;;
3643;SDS011;1838;50.742;7.158;2024-02-14T09:09:02;2.80;;;1.37;;
3643;SDS011;1838;50.742;7.158;2024-02-14T09:11:28;3.30;;;1.10;;
3643;SDS011;1838;50.742;7.158;2024-02-14T09:13:53;1.90;;;1.10;;
3643;SDS011;1838;50.742;7.158;2024-02-14T09:16:27;2.30;;;1.20;;
3643;SDS011;1838;50.742;7.158;2024-02-14T09:18:53;3.10;;;1.50;;
3643;SDS011;1838;50.742;7.158;2024-02-14T09:21:18;2.30;;;0.90;;
3643;SDS011;1838;50.742;7.158;2024-02-14T09:23:46;2.97;;;1.27;;
3643;SDS011;1838;50.742;7.158;2024-02-14T09:26:12;2.03;;;1.23;;
3643;SDS011;1838;50.742;7.158;2024-02-14T09:28:40;4.40;;;0.80;;
3643;SDS011;1838;50.742;7.158;2024-02-14T09:31:05;1.97;;;0.90;;
3643;SDS011;1838;50.742;7.158;2024-02-14T09:33:31;1.50;;;0.90;;
3643;SDS011;1838;50.742;7.158;2024-02-14T09:35:56;1.60;;;0.83;;
3643;SDS011;1838;50.742;7.158;2024-02-14T09:38:22;1.50;;;0.80;;
3643;SDS011;1838;50.742;7.158;2024-02-14T09:40:49;1.40;;;0.70;;
3643;SDS011;1838;50.742;7.158;2024-02-14T09:45:47;1.60;;;0.80;;
3643;SDS011;1838;50.742;7.158;2024-02-14T09:48:15;1.60;;;0.80;;
3643;SDS011;1838;50.742;7.158;2024-02-14T09:50:42;3.60;;;1.03;;
3643;SDS011;1838;50.742;7.158;2024-02-14T09:53:10;1.77;;;1.00;;
3643;SDS011;1838;50.742;7.158;2024-02-14T09:55:37;3.20;;;0.80;;
3643;SDS011;1838;50.742;7.158;2024-02-14T09:58:03;1.97;;;0.70;;
3643;SDS011;1838;50.742;7.158;2024-02-14T10:00:31;1.40;;;0.70;;
3643;SDS011;1838;50.742;7.158;2024-02-14T10:02:58;2.00;;;1.10;;
3643;SDS011;1838;50.742;7.158;2024-02-14T10:05:24;2.67;;;0.90;;
3643;SDS011;1838;50.742;7.158;2024-02-14T10:07:50;1.77;;;0.80;;
3643;SDS011;1838;50.742;7.158;2024-02-14T10:10:15;1.53;;;0.67;;
3643;SDS011;1838;50.742;7.158;2024-02-14T10:12:41;1.30;;;0.60;;
3643;SDS011;1838;50.742;7.158;2024-02-14T10:15:08;2.00;;;0.70;;
3643;SDS011;1838;50.742;7.158;2024-02-14T10:17:34;2.37;;;0.80;;
3643;SDS011;1838;50.742;7.158;2024-02-14T10:20:00;1.40;;;0.70;;
3643;SDS011;1838;50.742;7.158;2024-02-14T10:22:34;1.50;;;0.77;;
3643;SDS011;1838;50.742;7.158;2024-02-14T10:25:00;3.10;;;0.80;;
3643;SDS011;1838;50.742;7.158;2024-02-14T10:27:26;2.17;;;1.00;;
3643;SDS011;1838;50.742;7.158;2024-02-14T10:29:51;3.10;;;0.80;;
3643;SDS011;1838;50.742;7.158;2024-02-14T10:32:20;4.27;;;0.90;;
3643;SDS011;1838;50.742;7.158;2024-02-14T10:34:49;1.70;;;0.80;;
3643;SDS011;1838;50.742;7.158;2024-02-14T10:37:15;1.90;;;0.90;;
3643;SDS011;1838;50.742;7.158;2024-02-14T10:39:43;1.93;;;0.90;;
3643;SDS011;1838;50.742;7.158;2024-02-14T10:42:12;1.80;;;0.80;;
3643;SDS011;1838;50.742;7.158;2024-02-14T10:44:38;1.50;;;0.70;;
3643;SDS011;1838;50.742;7.158;2024-02-14T10:47:04;1.90;;;0.80;;
3643;SDS011;1838;50.742;7.158;2024-02-14T10:49:35;1.80;;;0.80;;
3643;SDS011;1838;50.742;7.158;2024-02-14T10:52:02;2.07;;;0.90;;
3643;SDS011;1838;50.742;7.158;2024-02-14T10:54:32;2.50;;;0.80;;
3643;SDS011;1838;50.742;7.158;2024-02-14T10:57:00;3.00;;;0.90;;
3643;SDS011;1838;50.742;7.158;2024-02-14T10:59:36;1.83;;;0.80;;
3643;SDS011;1838;50.742;7.158;2024-02-14T11:02:05;2.60;;;0.83;;
3643;SDS011;1838;50.742;7.158;2024-02-14T11:04:31;2.60;;;0.90;;
3643;SDS011;1838;50.742;7.158;2024-02-14T11:06:58;1.50;;;0.70;;
3643;SDS011;1838;50.742;7.158;2024-02-14T11:09:35;7.70;;;1.10;;
3643;SDS011;1838;50.742;7.158;2024-02-14T11:12:01;2.37;;;0.83;;
3643;SDS011;1838;50.742;7.158;2024-02-14T11:14:31;3.70;;;0.80;;
3643;SDS011;1838;50.742;7.158;2024-02-14T11:17:02;3.30;;;1.00;;
3643;SDS011;1838;50.742;7.158;2024-02-14T11:19:37;2.76;;;0.80;;
3643;SDS011;1838;50.742;7.158;2024-02-14T11:22:12;3.50;;;0.80;;
3643;SDS011;1838;50.742;7.158;2024-02-14T11:24:38;2.60;;;0.83;;
3643;SDS011;1838;50.742;7.158;2024-02-14T11:27:09;1.70;;;0.80;;
3643;SDS011;1838;50.742;7.158;2024-02-14T11:29:35;2.33;;;0.80;;
3643;SDS011;1838;50.742;7.158;2024-02-14T11:32:03;4.60;;;0.93;;
3643;SDS011;1838;50.742;7.158;2024-02-14T11:34:33;1.50;;;0.70;;
3643;SDS011;1838;50.742;7.158;2024-02-14T11:36:58;3.10;;;1.20;;
3643;SDS011;1838;50.742;7.158;2024-02-14T11:39:25;1.90;;;0.87;;
3643;SDS011;1838;50.742;7.158;2024-02-14T11:41:51;1.90;;;1.00;;
3643;SDS011;1838;50.742;7.158;2024-02-14T11:44:16;1.90;;;0.80;;
3643;SDS011;1838;50.742;7.158;2024-02-14T11:46:47;3.10;;;0.83;;
3643;SDS011;1838;50.742;7.158;2024-02-14T11:49:12;2.80;;;0.90;;
3643;SDS011;1838;50.742;7.158;2024-02-14T11:51:38;4.73;;;0.90;;
3643;SDS011;1838;50.742;7.158;2024-02-14T11:54:05;2.47;;;0.80;;
3643;SDS011;1838;50.742;7.158;2024-02-14T11:56:32;2.70;;;0.83;;
3643;SDS011;1838;50.742;7.158;2024-02-14T11:58:59;1.70;;;0.80;;
3643;SDS011;1838;50.742;7.158;2024-02-14T12:01:28;2.93;;;0.80;;
3643;SDS011;1838;50.742;7.158;2024-02-14T12:04:02;1.60;;;0.80;;
3643;SDS011;1838;50.742;7.158;2024-02-14T12:06:29;4.43;;;0.80;;
3643;SDS011;1838;50.742;7.158;2024-02-14T12:08:57;2.27;;;0.90;;
3643;SDS011;1838;50.742;7.158;2024-02-14T12:11:26;1.60;;;0.80;;
3643;SDS011;1838;50.742;7.158;2024-02-14T12:13:52;2.73;;;0.80;;
3643;SDS011;1838;50.742;7.158;2024-02-14T12:16:21;2.17;;;0.80;;
3643;SDS011;1838;50.742;7.158;2024-02-14T12:18:46;1.43;;;0.77;;
3643;SDS011;1838;50.742;7.158;2024-02-14T12:21:12;2.17;;;0.70;;
3643;SDS011;1838;50.742;7.158;2024-02-14T12:23:38;2.00;;;0.87;;
3643;SDS011;1838;50.742;7.158;2024-02-14T12:26:04;1.60;;;0.80;;
3643;SDS011;1838;50.742;7.158;2024-02-14T12:28:30;1.30;;;0.60;;
3643;SDS011;1838;50.742;7.158;2024-02-14T12:30:56;1.50;;;0.80;;
3643;SDS011;1838;50.742;7.158;2024-02-14T12:33:23;4.30;;;0.60;;
3643;SDS011;1838;50.742;7.158;2024-02-14T12:35:50;1.87;;;0.70;;
3643;SDS011;1838;50.742;7.158;2024-02-14T12:38:17;1.30;;;0.70;;
3643;SDS011;1838;50.742;7.158;2024-02-14T12:40:43;1.80;;;0.80;;
3643;SDS011;1838;50.742;7.158;2024-02-14T12:43:09;2.20;;;0.80;;
3643;SDS011;1838;50.742;7.158;2024-02-14T12:45:36;1.40;;;0.60;;
3643;SDS011;1838;50.742;7.158;2024-02-14T12:48:02;3.40;;;0.77;;
3643;SDS011;1838;50.742;7.158;2024-02-14T12:50:28;1.57;;;0.70;;
3643;SDS011;1838;50.742;7.158;2024-02-14T12:52:53;1.97;;;0.83;;
3643;SDS011;1838;50.742;7.158;2024-02-14T12:55:19;1.43;;;0.60;;
3643;SDS011;1838;50.742;7.158;2024-02-14T12:57:45;1.37;;;0.70;;
3643;SDS011;1838;50.742;7.158;2024-02-14T13:00:11;1.53;;;0.60;;
3643;SDS011;1838;50.742;7.158;2024-02-14T13:02:36;1.30;;;0.50;;
3643;SDS011;1838;50.742;7.158;2024-02-14T13:05:05;1.90;;;0.80;;
3643;SDS011;1838;50.742;7.158;2024-02-14T13:07:32;1.30;;;0.50;;
3643;SDS011;1838;50.742;7.158;2024-02-14T13:09:59;2.10;;;0.70;;
3643;SDS011;1838;50.742;7.158;2024-02-14T13:12:25;1.50;;;0.90;;
3643;SDS011;1838;50.742;7.158;2024-02-14T13:14:51;1.30;;;0.70;;
3643;SDS011;1838;50.742;7.158;2024-02-14T13:17:16;1.20;;;0.60;;
3643;SDS011;1838;50.742;7.158;2024-02-14T13:19:42;1.67;;;0.80;;
3643;SDS011;1838;50.742;7.158;2024-02-14T13:22:08;1.50;;;0.70;;
3643;SDS011;1838;50.742;7.158;2024-02-14T13:24:34;1.73;;;0.70;;
3643;SDS011;1838;50.742;7.158;2024-02-14T13:26:59;1.30;;;0.70;;
3643;SDS011;1838;50.742;7.158;2024-02-14T13:29:25;1.73;;;0.80;;
3643;SDS011;1838;50.742;7.158;2024-02-14T13:31:50;1.60;;;0.60;;
3643;SDS011;1838;50.742;7.158;2024-02-14T13:34:17;1.40;;;0.80;;
3643;SDS011;1838;50.742;7.158;2024-02-14T13:36:44;1.60;;;0.63;;
3643;SDS011;1838;50.742;7.158;2024-02-14T13:39:10;1.20;;;0.70;;
3643;SDS011;1838;50.742;7.158;2024-02-14T13:41:37;2.70;;;0.90;;
3643;SDS011;1838;50.742;7.158;2024-02-14T13:44:03;1.60;;;0.80;;
3643;SDS011;1838;50.742;7.158;2024-02-14T13:46:29;1.67;;;0.80;;
3643;SDS011;1838;50.742;7.158;2024-02-14T13:48:55;3.40;;;1.20;;
3643;SDS011;1838;50.742;7.158;2024-02-14T13:51:20;4.40;;;0.80;;
3643;SDS011;1838;50.742;7.158;2024-02-14T13:53:46;1.30;;;0.70;;
3643;SDS011;1838;50.742;7.158;2024-02-14T13:56:12;1.50;;;0.80;;
3643;SDS011;1838;50.742;7.158;2024-02-14T13:58:37;1.83;;;1.07;;
3643;SDS011;1838;50.742;7.158;2024-02-14T14:01:03;3.00;;;1.00;;
3643;SDS011;1838;50.742;7.158;2024-02-14T14:03:29;3.23;;;0.80;;
3643;SDS011;1838;50.742;7.158;2024-02-14T14:05:55;3.33;;;1.37;;
3643;SDS011;1838;50.742;7.158;2024-02-14T14:08:21;1.87;;;0.90;;
3643;SDS011;1838;50.742;7.158;2024-02-14T14:10:48;3.10;;;1.40;;
3643;SDS011;1838;50.742;7.158;2024-02-14T14:13:13;1.80;;;1.20;;
3643;SDS011;1838;50.742;7.158;2024-02-14T14:15:39;2.00;;;1.30;;
3643;SDS011;1838;50.742;7.158;2024-02-14T14:18:05;1.77;;;1.13;;
3643;SDS011;1838;50.742;7.158;2024-02-14T14:20:33;1.50;;;1.00;;
3643;SDS011;1838;50.742;7.158;2024-02-14T14:22:59;2.10;;;0.90;;
3643;SDS011;1838;50.742;7.158;2024-02-14T14:25:25;2.80;;;1.10;;
3643;SDS011;1838;50.742;7.158;2024-02-14T14:27:53;1.63;;;1.00;;
3643;SDS011;1838;50.742;7.158;2024-02-14T14:30:18;1.70;;;0.80;;
3643;SDS011;1838;50.742;7.158;2024-02-14T14:32:44;1.60;;;0.90;;
3643;SDS011;1838;50.742;7.158;2024-02-14T14:35:09;1.80;;;1.03;;
3643;SDS011;1838;50.742;7.158;2024-02-14T14:37:35;3.50;;;1.03;;
3643;SDS011;1838;50.742;7.158;2024-02-14T14:40:01;1.87;;;1.00;;
3643;SDS011;1838;50.742;7.158;2024-02-14T14:42:30;1.80;;;1.40;;
3643;SDS011;1838;50.742;7.158;2024-02-14T14:44:55;1.53;;;0.90;;
3643;SDS011;1838;50.742;7.158;2024-02-14T14:47:22;2.10;;;1.10;;
3643;SDS011;1838;50.742;7.158;2024-02-14T14:49:48;2.07;;;1.10;;
3643;SDS011;1838;50.742;7.158;2024-02-14T14:52:13;3.73;;;1.07;;
3643;SDS011;1838;50.742;7.158;2024-02-14T14:54:39;2.37;;;1.40;;
3643;SDS011;1838;50.742;7.158;2024-02-14T14:57:05;2.30;;;1.40;;
3643;SDS011;1838;50.742;7.158;2024-02-14T14:59:36;2.50;;;1.57;;
3643;SDS011;1838;50.742;7.158;2024-02-14T15:02:02;1.60;;;0.90;;
3643;SDS011;1838;50.742;7.158;2024-02-14T15:04:27;2.00;;;1.50;;
3643;SDS011;1838;50.742;7.158;2024-02-14T15:06:53;2.50;;;2.30;;
3643;SDS011;1838;50.742;7.158;2024-02-14T15:09:20;1.97;;;1.63;;
3643;SDS011;1838;50.742;7.158;2024-02-14T15:11:45;3.87;;;2.20;;